createdAt,value
2018-11-29T00:01:07.718Z,-4.72
2018-11-29T00:03:38.387Z,-4.77
2018-11-29T00:06:24.628Z,-4.80
2018-11-29T00:08:55.607Z,-4.80
2018-11-29T00:11:26.504Z,-4.80
2018-11-29T00:13:57.056Z,-4.80
2018-11-29T00:16:27.612Z,-4.76
2018-11-29T00:18:58.198Z,-4.80
2018-11-29T00:21:28.774Z,-4.82
2018-11-29T00:23:59.338Z,-4.83
2018-11-29T00:26:30.018Z,-4.85
2018-11-29T00:29:00.719Z,-4.85
2018-11-29T00:31:31.348Z,-4.85
2018-11-29T00:34:01.910Z,-4.83
2018-11-29T00:36:32.459Z,-4.83
2018-11-29T00:39:03.072Z,-4.84
2018-11-29T00:41:33.624Z,-4.83
2018-11-29T00:44:04.249Z,-4.81
2018-11-29T00:46:34.820Z,-4.81
2018-11-29T00:49:05.444Z,-4.81
2018-11-29T00:51:36.168Z,-4.84
2018-11-29T00:54:07.101Z,-4.83
2018-11-29T00:56:37.709Z,-4.83
2018-11-29T00:59:08.282Z,-4.77
2018-11-29T01:01:42.835Z,-4.83
2018-11-29T01:04:13.441Z,-4.80
2018-11-29T01:06:43.995Z,-4.89
2018-11-29T01:09:14.772Z,-4.85
2018-11-29T01:11:45.512Z,-4.82
2018-11-29T01:14:16.035Z,-4.88
2018-11-29T01:16:46.580Z,-4.88
2018-11-29T01:19:17.213Z,-4.83
2018-11-29T01:21:47.755Z,-4.86
2018-11-29T01:24:18.354Z,-4.85
2018-11-29T01:26:48.941Z,-4.84
2018-11-29T01:29:19.563Z,-4.83
2018-11-29T01:31:50.660Z,-4.81
2018-11-29T01:34:21.301Z,-4.85
2018-11-29T01:36:51.904Z,-4.87
2018-11-29T01:39:22.628Z,-4.88
2018-11-29T01:41:53.246Z,-4.89
2018-11-29T01:44:23.837Z,-4.85
2018-11-29T01:46:54.495Z,-4.94
2018-11-29T01:49:25.101Z,-4.88
2018-11-29T01:51:55.882Z,-4.90
2018-11-29T01:54:26.500Z,-4.87
2018-11-29T01:56:57.077Z,-4.88
2018-11-29T01:59:27.669Z,-4.94
2018-11-29T02:01:58.333Z,-4.95
2018-11-29T02:04:29.023Z,-4.97
2018-11-29T02:06:59.662Z,-4.98
2018-11-29T02:09:30.323Z,-4.91
2018-11-29T02:12:01.121Z,-4.97
2018-11-29T02:14:32.573Z,-4.96
2018-11-29T02:17:03.201Z,-4.95
2018-11-29T02:19:33.806Z,-4.92
2018-11-29T02:22:04.497Z,-4.93
2018-11-29T02:24:35.161Z,-4.98
2018-11-29T02:27:06.010Z,-4.98
2018-11-29T02:29:36.733Z,-4.94
2018-11-29T02:32:08.574Z,-4.99
2018-11-29T02:34:39.215Z,-5.07
2018-11-29T02:37:09.926Z,-5.03
2018-11-29T02:39:40.454Z,-5.06
2018-11-29T02:42:11.132Z,-5.03
2018-11-29T02:44:41.734Z,-5.01
2018-11-29T02:47:12.326Z,-5.02
2018-11-29T02:49:42.842Z,-5.05
2018-11-29T02:52:14.669Z,-4.99
2018-11-29T02:54:45.193Z,-4.98
2018-11-29T02:57:15.785Z,-5.02
2018-11-29T02:59:46.447Z,-5.00
2018-11-29T03:02:17.033Z,-5.02
2018-11-29T03:04:47.588Z,-5.01
2018-11-29T03:07:18.234Z,-5.02
2018-11-29T03:09:48.813Z,-5.08
2018-11-29T03:12:19.626Z,-5.12
2018-11-29T03:14:50.105Z,-5.04
2018-11-29T03:17:20.722Z,-5.03
2018-11-29T03:19:51.240Z,-5.04
2018-11-29T03:22:21.842Z,-5.05
2018-11-29T03:24:52.522Z,-5.02
2018-11-29T03:27:23.090Z,-5.01
2018-11-29T03:29:53.673Z,-5.03
2018-11-29T03:32:24.278Z,-4.99
2018-11-29T03:34:54.873Z,-5.00
2018-11-29T03:37:25.475Z,-5.06
2018-11-29T03:39:56.084Z,-5.07
2018-11-29T03:42:26.601Z,-5.02
2018-11-29T03:44:57.169Z,-4.98
2018-11-29T03:47:27.696Z,-4.92
2018-11-29T03:49:58.221Z,-4.91
2018-11-29T03:52:28.771Z,-4.83
2018-11-29T03:54:59.403Z,-4.89
2018-11-29T03:57:29.852Z,-4.85
2018-11-29T04:00:00.514Z,-4.87
2018-11-29T04:02:31.068Z,-4.93
2018-11-29T04:05:01.725Z,-4.94
2018-11-29T04:07:32.267Z,-4.98
2018-11-29T04:10:02.890Z,-4.86
2018-11-29T04:12:33.669Z,-4.88
2018-11-29T04:15:04.464Z,-4.88
2018-11-29T04:17:40.646Z,-4.88
2018-11-29T04:20:07.025Z,-4.92
2018-11-29T04:22:37.633Z,-4.83
2018-11-29T04:25:09.642Z,-4.89
2018-11-29T04:27:40.268Z,-4.78
2018-11-29T04:30:12.413Z,-4.85
2018-11-29T04:32:43.121Z,-4.85
2018-11-29T04:35:14.118Z,-4.84
2018-11-29T04:37:44.679Z,-4.81
2018-11-29T04:40:17.113Z,-4.89
2018-11-29T04:42:47.874Z,-4.88
2018-11-29T04:45:19.044Z,-4.88
2018-11-29T04:47:49.749Z,-4.90
2018-11-29T04:55:21.899Z,-4.99
2018-11-29T04:57:52.502Z,-4.94
2018-11-29T05:00:23.141Z,-4.95
2018-11-29T05:02:53.734Z,-5.02
2018-11-29T05:05:24.309Z,-4.99
2018-11-29T05:07:54.905Z,-5.04
2018-11-29T05:10:25.463Z,-5.01
2018-11-29T05:12:56.127Z,-5.01
2018-11-29T05:15:26.801Z,-5.03
2018-11-29T05:17:57.506Z,-4.96
2018-11-29T05:20:28.173Z,-4.95
2018-11-29T05:22:58.849Z,-4.95
2018-11-29T05:25:29.463Z,-4.93
2018-11-29T05:28:00.042Z,-4.99
2018-11-29T05:30:30.601Z,-4.98
2018-11-29T05:33:01.246Z,-5.00
2018-11-29T05:35:31.866Z,-4.98
2018-11-29T05:38:02.406Z,-5.02
2018-11-29T05:40:33.033Z,-5.10
2018-11-29T05:43:03.595Z,-5.09
2018-11-29T05:45:34.272Z,-5.07
2018-11-29T05:48:04.989Z,-5.09
2018-11-29T05:50:35.677Z,-5.11
2018-11-29T05:53:06.605Z,-5.03
2018-11-29T05:55:37.162Z,-5.08
2018-11-29T05:58:08.125Z,-5.11
2018-11-29T06:00:38.892Z,-5.12
2018-11-29T06:03:09.872Z,-5.14
2018-11-29T06:05:40.510Z,-5.12
2018-11-29T06:08:11.564Z,-5.07
2018-11-29T06:10:42.158Z,-5.10
2018-11-29T06:13:12.690Z,-5.01
2018-11-29T06:15:43.198Z,-5.10
2018-11-29T06:18:13.816Z,-4.99
2018-11-29T06:20:44.426Z,-5.08
2018-11-29T06:23:14.956Z,-5.14
2018-11-29T06:25:45.572Z,-5.20
2018-11-29T06:28:16.145Z,-5.15
2018-11-29T06:30:46.718Z,-5.13
2018-11-29T06:33:18.126Z,-5.07
2018-11-29T06:35:48.735Z,-5.09
2018-11-29T06:38:19.298Z,-5.06
2018-11-29T06:40:49.894Z,-5.10
2018-11-29T06:43:20.538Z,-5.11
2018-11-29T06:45:51.129Z,-5.07
2018-11-29T06:48:21.684Z,-5.12
2018-11-29T06:50:52.306Z,-5.03
2018-11-29T06:53:29.158Z,-5.07
2018-11-29T06:55:59.717Z,-5.06
2018-11-29T06:58:30.293Z,-5.07
2018-11-29T07:01:00.999Z,-5.10
2018-11-29T07:03:31.611Z,-5.04
2018-11-29T07:06:02.284Z,-4.99
2018-11-29T07:08:32.893Z,-5.06
2018-11-29T07:11:03.488Z,-5.00
2018-11-29T07:13:34.414Z,-4.92
2018-11-29T07:16:04.973Z,-4.90
2018-11-29T07:18:35.599Z,-4.88
2018-11-29T07:21:16.533Z,-4.77
2018-11-29T07:23:47.144Z,-4.80
2018-11-29T07:26:17.743Z,-4.73
2018-11-29T07:28:48.310Z,-4.75
2018-11-29T07:31:19.001Z,-4.90
2018-11-29T07:33:49.687Z,-4.83
2018-11-29T07:36:20.315Z,-4.76
2018-11-29T07:38:50.861Z,-4.75
2018-11-29T07:41:21.514Z,-4.67
2018-11-29T07:43:52.078Z,-4.65
2018-11-29T07:46:22.655Z,-4.61
2018-11-29T07:48:53.350Z,-4.50
2018-11-29T07:51:23.816Z,-4.40
2018-11-29T07:53:54.707Z,-4.42
2018-11-29T07:56:25.318Z,-4.44
2018-11-29T07:58:55.941Z,-4.41
2018-11-29T08:01:26.560Z,-4.31
2018-11-29T08:03:57.282Z,-4.28
2018-11-29T08:06:27.841Z,-4.29
2018-11-29T08:08:58.403Z,-4.25
2018-11-29T08:11:29.001Z,-4.39
2018-11-29T08:13:59.904Z,-4.34
2018-11-29T08:16:30.430Z,-4.34
2018-11-29T08:19:01.102Z,-4.35
2018-11-29T08:21:31.646Z,-4.29
2018-11-29T08:24:02.323Z,-4.21
2018-11-29T08:26:32.889Z,-3.99
2018-11-29T08:29:03.437Z,-3.83
2018-11-29T08:31:34.064Z,-3.76
2018-11-29T08:34:04.892Z,-3.69
2018-11-29T08:36:35.492Z,-3.61
2018-11-29T08:39:08.998Z,-3.58
2018-11-29T08:41:39.567Z,-3.62
2018-11-29T08:44:10.238Z,-3.59
2018-11-29T08:46:40.713Z,-3.50
2018-11-29T08:49:11.386Z,-3.53
2018-11-29T08:51:42.006Z,-3.66
2018-11-29T08:54:12.583Z,-3.82
2018-11-29T08:56:43.126Z,-3.78
2018-11-29T08:59:13.716Z,-3.81
2018-11-29T09:01:44.239Z,-3.78
2018-11-29T09:04:14.834Z,-3.90
2018-11-29T09:06:45.403Z,-3.80
2018-11-29T09:09:15.986Z,-3.74
2018-11-29T09:11:46.614Z,-3.73
2018-11-29T09:14:17.365Z,-3.86
2018-11-29T09:16:47.957Z,-4.00
2018-11-29T09:19:18.532Z,-3.90
2018-11-29T09:21:49.046Z,-4.00
2018-11-29T09:24:19.664Z,-3.89
2018-11-29T09:26:50.220Z,-4.02
2018-11-29T09:29:20.925Z,-4.04
2018-11-29T09:31:51.491Z,-3.95
2018-11-29T09:34:22.423Z,-3.90
2018-11-29T09:36:53.043Z,-3.86
2018-11-29T09:39:23.638Z,-3.96
2018-11-29T09:41:54.175Z,-4.01
2018-11-29T09:44:24.819Z,-3.96
2018-11-29T09:46:55.396Z,-3.90
2018-11-29T09:49:25.957Z,-3.83
2018-11-29T09:51:56.586Z,-3.83
2018-11-29T09:54:27.371Z,-3.90
2018-11-29T09:56:58.031Z,-3.92
2018-11-29T09:59:28.529Z,-3.92
2018-11-29T10:01:59.118Z,-3.94
2018-11-29T10:04:29.675Z,-3.96
2018-11-29T10:07:00.304Z,-3.95
2018-11-29T10:09:30.958Z,-4.06
2018-11-29T10:12:01.521Z,-4.05
2018-11-29T10:14:32.224Z,-4.00
2018-11-29T10:17:02.836Z,-4.04
2018-11-29T10:19:33.250Z,-4.14
2018-11-29T10:22:31.036Z,-4.14
2018-11-29T10:28:21.991Z,-4.17
2018-11-29T10:30:55.089Z,-4.25
2018-11-29T10:33:25.749Z,-4.29
2018-11-29T10:35:59.233Z,-4.36
2018-11-29T10:38:26.948Z,-4.26
2018-11-29T10:40:57.531Z,-4.18
2018-11-29T10:43:28.150Z,-4.29
2018-11-29T10:45:58.688Z,-4.31
2018-11-29T10:48:29.365Z,-4.27
2018-11-29T10:50:59.933Z,-4.25
2018-11-29T10:53:36.321Z,-4.33
2018-11-29T10:56:02.061Z,-4.29
2018-11-29T10:58:32.633Z,-4.30
2018-11-29T11:01:08.157Z,-4.20
2018-11-29T11:03:38.775Z,-4.26
2018-11-29T11:06:09.405Z,-4.17
2018-11-29T11:08:40.034Z,-4.13
2018-11-29T11:11:10.617Z,-4.14
2018-11-29T11:13:41.129Z,-4.15
2018-11-29T11:16:11.804Z,-4.11
2018-11-29T11:18:42.299Z,-4.13
2018-11-29T11:21:12.925Z,-4.23
2018-11-29T11:23:43.516Z,-4.23
2018-11-29T11:26:14.051Z,-4.16
2018-11-29T11:28:44.705Z,-4.16
2018-11-29T11:31:15.327Z,-4.20
2018-11-29T11:33:45.847Z,-4.30
2018-11-29T11:36:16.654Z,-4.26
2018-11-29T11:38:47.237Z,-4.27
2018-11-29T11:41:17.756Z,-4.21
2018-11-29T11:43:48.374Z,-4.33
2018-11-29T11:46:18.916Z,-4.37
2018-11-29T11:48:49.440Z,-4.34
2018-11-29T11:51:20.046Z,-4.29
2018-11-29T11:53:50.571Z,-4.35
2018-11-29T11:56:21.196Z,-4.30
2018-11-29T11:58:51.780Z,-4.30
2018-11-29T12:01:22.429Z,-4.28
2018-11-29T12:03:53.103Z,-4.29
2018-11-29T12:06:23.660Z,-4.23
2018-11-29T12:08:54.274Z,-4.28
2018-11-29T12:11:24.942Z,-4.40
2018-11-29T12:13:55.590Z,-4.39
2018-11-29T12:16:26.440Z,-4.53
2018-11-29T12:19:02.261Z,-4.55
2018-11-29T12:21:27.596Z,-4.63
2018-11-29T12:23:58.193Z,-4.62
2018-11-29T12:26:28.866Z,-4.65
2018-11-29T12:28:59.518Z,-4.63
2018-11-29T12:31:30.249Z,-4.56
2018-11-29T12:34:00.786Z,-4.54
2018-11-29T12:36:31.455Z,-4.65
2018-11-29T12:39:02.033Z,-4.67
2018-11-29T12:41:32.710Z,-4.59
2018-11-29T12:44:03.222Z,-4.51
2018-11-29T12:46:33.930Z,-4.57
2018-11-29T12:49:04.583Z,-4.56
2018-11-29T12:51:35.177Z,-4.64
2018-11-29T12:54:06.190Z,-4.69
2018-11-29T12:56:37.772Z,-4.68
2018-11-29T12:59:08.606Z,-4.85
2018-11-29T13:01:39.249Z,-4.85
2018-11-29T13:04:09.840Z,-4.84
2018-11-29T13:06:40.367Z,-4.85
2018-11-29T13:09:11.683Z,-4.77
2018-11-29T13:11:42.246Z,-4.82
2018-11-29T13:14:12.918Z,-4.74
2018-11-29T13:16:43.602Z,-4.75
2018-11-29T13:19:14.145Z,-4.74
2018-11-29T13:21:44.661Z,-4.73
2018-11-29T13:24:15.209Z,-4.79
2018-11-29T13:26:45.746Z,-4.86
2018-11-29T13:29:16.359Z,-4.87
2018-11-29T13:31:46.833Z,-4.99
2018-11-29T13:34:17.452Z,-4.98
2018-11-29T13:36:48.169Z,-4.98
2018-11-29T13:39:18.709Z,-4.99
2018-11-29T13:41:49.298Z,-5.07
2018-11-29T13:44:19.916Z,-5.10
2018-11-29T13:46:51.101Z,-5.05
2018-11-29T13:49:21.680Z,-5.09
2018-11-29T13:51:52.328Z,-5.08
2018-11-29T13:54:22.876Z,-5.06
2018-11-29T13:56:53.660Z,-5.07
2018-11-29T13:59:24.232Z,-5.11
2018-11-29T14:01:54.783Z,-5.19
2018-11-29T14:04:25.323Z,-5.17
2018-11-29T14:06:55.892Z,-5.23
2018-11-29T14:09:26.695Z,-5.31
2018-11-29T14:11:57.879Z,-5.27
2018-11-29T14:14:28.461Z,-5.20
2018-11-29T14:16:59.307Z,-5.27
2018-11-29T14:19:29.845Z,-5.30
2018-11-29T14:22:00.520Z,-5.31
2018-11-29T14:24:31.053Z,-5.31
2018-11-29T14:27:01.680Z,-5.26
2018-11-29T14:29:32.294Z,-5.25
2018-11-29T14:32:02.924Z,-5.75
2018-11-29T14:34:33.516Z,-5.28
2018-11-29T14:37:04.889Z,-5.29
2018-11-29T14:39:36.644Z,-5.26
2018-11-29T14:42:07.633Z,-5.28
2018-11-29T14:44:38.195Z,-5.35
2018-11-29T14:47:08.810Z,-5.29
2018-11-29T14:49:39.446Z,-5.30
2018-11-29T14:52:10.064Z,-5.34
2018-11-29T14:54:40.639Z,-5.41
2018-11-29T14:57:11.457Z,-5.34
2018-11-29T14:59:42.011Z,-5.36
2018-11-29T15:02:12.732Z,-5.31
2018-11-29T15:04:43.341Z,-5.31
2018-11-29T15:07:13.878Z,-5.25
2018-11-29T15:09:44.383Z,-5.26
2018-11-29T15:12:14.997Z,-5.25
2018-11-29T15:14:45.985Z,-5.27
2018-11-29T15:17:16.625Z,-5.33
2018-11-29T15:19:47.230Z,-5.38
2018-11-29T15:22:17.885Z,-5.30
2018-11-29T15:24:48.425Z,-5.38
2018-11-29T15:27:20.058Z,-5.42
2018-11-29T15:29:50.612Z,-5.39
2018-11-29T15:32:21.234Z,-5.38
2018-11-29T15:34:51.720Z,-5.44
2018-11-29T15:37:25.482Z,-5.45
2018-11-29T15:39:56.031Z,-5.38
2018-11-29T15:42:26.803Z,-5.45
2018-11-29T15:44:57.398Z,-5.47
2018-11-29T15:47:28.056Z,-5.47
2018-11-29T15:49:58.557Z,-5.43
2018-11-29T15:52:29.132Z,-5.37
2018-11-29T15:54:59.682Z,-5.37
2018-11-29T15:57:34.934Z,-5.42
2018-11-29T16:00:01.873Z,-5.41
2018-11-29T16:02:32.498Z,-5.42
2018-11-29T16:05:03.126Z,-5.38
2018-11-29T16:07:33.668Z,-5.39
2018-11-29T16:10:04.466Z,-5.46
2018-11-29T16:12:35.107Z,-5.41
2018-11-29T16:15:06.487Z,-5.52
2018-11-29T16:17:37.233Z,-5.47
2018-11-29T16:20:13.207Z,-5.46
2018-11-29T16:22:43.838Z,-5.47
2018-11-29T16:25:14.410Z,-5.53
2018-11-29T16:27:45.643Z,-5.53
2018-11-29T16:30:25.748Z,-5.46
2018-11-29T16:32:57.072Z,-5.43
2018-11-29T16:35:27.743Z,-5.50
2018-11-29T16:37:58.400Z,-5.47
2018-11-29T16:40:28.915Z,-5.47
2018-11-29T16:42:59.611Z,-5.46
2018-11-29T16:45:30.175Z,-5.47
2018-11-29T16:48:00.754Z,-5.51
2018-11-29T16:50:31.991Z,-5.51
2018-11-29T16:53:02.625Z,-5.43
2018-11-29T16:55:33.167Z,-5.42
2018-11-29T16:58:05.489Z,-5.42
2018-11-29T17:00:36.291Z,-5.34
2018-11-29T17:03:06.914Z,-5.39
2018-11-29T17:05:37.496Z,-5.37
2018-11-29T17:08:08.473Z,-5.35
2018-11-29T17:10:39.071Z,-5.28
2018-11-29T17:13:13.025Z,-5.32
2018-11-29T17:15:43.627Z,-5.36
2018-11-29T17:18:15.452Z,-5.36
2018-11-29T17:20:47.230Z,-5.35
2018-11-29T17:23:18.739Z,-5.31
2018-11-29T17:25:49.976Z,-5.29
2018-11-29T17:28:20.557Z,-5.26
2018-11-29T17:30:53.062Z,-5.27
2018-11-29T17:33:23.858Z,-5.25
2018-11-29T17:35:54.522Z,-5.27
2018-11-29T17:38:25.162Z,-5.26
2018-11-29T17:40:55.847Z,-5.28
2018-11-29T17:43:26.370Z,-5.28
2018-11-29T17:45:56.866Z,-5.30
2018-11-29T17:48:27.478Z,-5.30
2018-11-29T17:50:58.028Z,-5.30
2018-11-29T17:53:28.609Z,-5.28
2018-11-29T17:55:59.275Z,-5.31
2018-11-29T17:58:30.035Z,-5.33
2018-11-29T18:01:00.707Z,-5.34
2018-11-29T18:03:31.254Z,-5.31
2018-11-29T18:06:01.873Z,-5.30
2018-11-29T18:08:32.515Z,-5.31
2018-11-29T18:11:03.204Z,-5.36
2018-11-29T18:13:35.664Z,-5.30
2018-11-29T18:16:06.692Z,-5.32
2018-11-29T18:18:37.575Z,-5.35
2018-11-29T18:21:08.282Z,-5.37
2018-11-29T18:23:38.874Z,-5.38
2018-11-29T18:26:09.491Z,-5.31
2018-11-29T18:28:40.181Z,-5.30
2018-11-29T18:31:10.794Z,-5.31
2018-11-29T18:33:41.497Z,-5.31
2018-11-29T18:36:14.265Z,-5.32
2018-11-29T18:38:43.224Z,-5.31
2018-11-29T18:41:13.851Z,-5.30
2018-11-29T18:43:44.495Z,-5.32
2018-11-29T18:46:17.188Z,-5.39
2018-11-29T18:48:45.861Z,-5.35
2018-11-29T18:51:16.641Z,-5.35
2018-11-29T18:53:47.241Z,-5.37
2018-11-29T18:56:17.818Z,-5.48
2018-11-29T18:58:51.866Z,-5.33
2018-11-29T19:01:23.108Z,-5.34
2018-11-29T19:03:53.805Z,-5.28
2018-11-29T19:06:24.437Z,-5.34
2018-11-29T19:08:55.172Z,-5.36
2018-11-29T19:11:25.710Z,-5.31
2018-11-29T19:13:56.305Z,-5.30
2018-11-29T19:17:49.966Z,-5.36
2018-11-29T19:20:20.559Z,-5.35
2018-11-29T19:22:52.183Z,-5.35
2018-11-29T19:25:22.782Z,-5.29
2018-11-29T19:27:53.745Z,-5.29
2018-11-29T19:30:26.630Z,-5.32
2018-11-29T19:33:17.961Z,-5.36
2018-11-29T19:35:52.716Z,-5.32
2018-11-29T19:38:23.451Z,-5.36
2018-11-29T19:40:54.726Z,-5.36
2018-11-29T19:43:25.329Z,-5.37
2018-11-29T19:45:55.981Z,-5.44
2018-11-29T19:48:26.670Z,-5.35
2018-11-29T19:50:57.434Z,-5.35
2018-11-29T19:53:28.501Z,-5.33
2018-11-29T19:56:00.741Z,-5.34
2018-11-29T19:58:31.424Z,-5.34
2018-11-29T20:01:02.063Z,-5.33
2018-11-29T20:03:32.717Z,-5.34
2018-11-29T20:06:03.330Z,-5.31
2018-11-29T20:08:34.023Z,-5.28
2018-11-29T20:11:04.616Z,-5.34
2018-11-29T20:13:35.192Z,-5.34
2018-11-29T20:16:05.942Z,-5.33
2018-11-29T20:18:36.574Z,-5.33
2018-11-29T20:21:07.240Z,-5.26
2018-11-29T20:23:37.871Z,-5.26
2018-11-29T20:26:08.370Z,-5.25
2018-11-29T20:28:39.038Z,-5.26
2018-11-29T20:31:09.655Z,-5.28
2018-11-29T20:33:40.227Z,-5.28
2018-11-29T20:36:11.039Z,-5.28
2018-11-29T20:38:41.704Z,-5.26
2018-11-29T20:41:12.296Z,-5.21
2018-11-29T20:43:42.893Z,-5.20
2018-11-29T20:46:13.631Z,-5.25
2018-11-29T20:48:44.571Z,-5.30
2018-11-29T20:51:15.108Z,-5.28
2018-11-29T20:53:45.654Z,-5.25
2018-11-29T20:56:17.025Z,-5.29
2018-11-29T20:58:47.632Z,-5.30
2018-11-29T21:01:18.330Z,-5.25
2018-11-29T21:03:48.986Z,-5.18
2018-11-29T21:06:19.689Z,-5.19
2018-11-29T21:08:50.279Z,-5.16
2018-11-29T21:11:20.882Z,-5.17
2018-11-29T21:13:51.531Z,-5.20
2018-11-29T21:16:22.302Z,-5.18
2018-11-29T21:18:52.990Z,-5.17
2018-11-29T21:21:23.727Z,-5.18
2018-11-29T21:23:54.248Z,-5.16
2018-11-29T21:26:24.842Z,-5.15
2018-11-29T21:28:55.486Z,-5.13
2018-11-29T21:31:26.172Z,-5.14
2018-11-29T21:33:56.749Z,-5.13
2018-11-29T21:36:27.396Z,-5.16
2018-11-29T21:38:57.957Z,-5.12
2018-11-29T21:41:28.584Z,-5.15
2018-11-29T21:43:59.169Z,-5.14
2018-11-29T21:46:29.848Z,-5.13
2018-11-29T21:49:00.470Z,-5.12
2018-11-29T21:51:31.090Z,-5.10
2018-11-29T21:54:01.648Z,-5.09
2018-11-29T21:56:33.179Z,-5.14
2018-11-29T21:59:03.873Z,-5.15
2018-11-29T22:01:34.392Z,-5.14
2018-11-29T22:04:05.098Z,-5.11
2018-11-29T22:06:35.599Z,-5.16
2018-11-29T22:09:07.397Z,-5.14
2018-11-29T22:11:37.932Z,-5.09
2018-11-29T22:14:08.574Z,-5.10
2018-11-29T22:16:40.168Z,-5.08
2018-11-29T22:19:10.792Z,-5.07
2018-11-29T22:21:41.475Z,-5.03
2018-11-29T22:24:12.085Z,-5.10
2018-11-29T22:26:43.120Z,-5.09
2018-11-29T22:29:13.721Z,-5.11
2018-11-29T22:31:44.270Z,-5.21
2018-11-29T22:34:14.944Z,-5.10
2018-11-29T22:36:45.536Z,-5.09
2018-11-29T22:39:16.327Z,-5.10
2018-11-29T22:41:46.823Z,-5.12
2018-11-29T22:44:17.460Z,-5.15
2018-11-29T22:46:48.116Z,-5.16
2018-11-29T22:49:18.682Z,-5.17
2018-11-29T22:51:49.338Z,-5.17
2018-11-29T22:54:19.924Z,-5.15
2018-11-29T22:56:50.519Z,-5.17
2018-11-29T22:59:21.077Z,-5.17
2018-11-29T23:01:51.641Z,-5.16
2018-11-29T23:04:22.235Z,-5.14
2018-11-29T23:06:52.894Z,-5.18
2018-11-29T23:09:23.649Z,-5.26
2018-11-29T23:11:54.267Z,-5.19
2018-11-29T23:14:24.927Z,-5.21
2018-11-29T23:16:55.437Z,-5.20
2018-11-29T23:19:26.078Z,-5.10
2018-11-29T23:21:56.617Z,-5.16
2018-11-29T23:24:28.430Z,-5.17
2018-11-29T23:26:59.117Z,-5.20
2018-11-29T23:29:29.680Z,-5.16
2018-11-29T23:32:00.293Z,-5.13
2018-11-29T23:34:31.000Z,-5.14
2018-11-29T23:37:01.678Z,-5.15
2018-11-29T23:39:32.270Z,-5.11
2018-11-29T23:42:02.801Z,-5.14
2018-11-29T23:44:33.419Z,-5.11
2018-11-29T23:47:03.950Z,-5.07
2018-11-29T23:49:34.540Z,-5.06
2018-11-29T23:52:05.111Z,-5.16
2018-11-29T23:54:35.662Z,-5.15
2018-11-29T23:57:07.622Z,-5.12
2018-11-29T23:59:38.187Z,-5.12
